createdAt,value
2018-02-10T00:00:18.221Z,9.86
2018-02-10T00:02:48.781Z,9.90
2018-02-10T00:05:16.166Z,10.08
2018-02-10T00:07:43.546Z,9.93
2018-02-10T00:10:10.929Z,9.74
2018-02-10T00:12:38.313Z,9.69
2018-02-10T00:15:05.695Z,9.95
2018-02-10T00:17:33.077Z,10.09
2018-02-10T00:20:00.454Z,10.21
2018-02-10T00:22:36.060Z,10.42
2018-02-10T00:25:03.442Z,10.40
2018-02-10T00:27:30.861Z,10.26
2018-02-10T00:29:58.244Z,10.29
2018-02-10T00:32:25.621Z,10.21
2018-02-10T00:34:53.046Z,10.15
2018-02-10T00:37:20.425Z,10.18
2018-02-10T00:39:47.800Z,10.24
2018-02-10T00:42:15.250Z,10.37
2018-02-10T00:44:42.701Z,10.14
2018-02-10T00:47:10.077Z,10.11
2018-02-10T00:49:37.481Z,10.05
2018-02-10T00:52:04.900Z,9.94
2018-02-10T00:54:32.277Z,9.74
2018-02-10T00:56:59.653Z,9.55
2018-02-10T00:59:27.065Z,9.79
2018-02-10T01:01:54.442Z,9.96
2018-02-10T01:04:21.830Z,10.15
2018-02-10T01:06:49.204Z,9.73
2018-02-10T01:09:16.586Z,9.82
2018-02-10T01:11:44.006Z,10.07
2018-02-10T01:14:11.389Z,9.93
2018-02-10T01:16:38.765Z,9.84
2018-02-10T01:19:06.185Z,9.81
2018-02-10T01:21:33.565Z,10.03
2018-02-10T01:24:02.437Z,10.00
2018-02-10T01:26:29.828Z,9.85
2018-02-10T01:28:57.205Z,9.80
2018-02-10T01:31:24.589Z,9.68
2018-02-10T01:33:52.006Z,9.63
2018-02-10T01:36:19.419Z,9.49
2018-02-10T01:38:46.899Z,9.39
2018-02-10T01:41:14.321Z,9.01
2018-02-10T01:43:41.697Z,9.10
2018-02-10T01:46:09.072Z,9.54
2018-02-10T01:48:36.485Z,9.41
2018-02-10T01:51:03.865Z,9.50
2018-02-10T01:53:31.241Z,9.36
2018-02-10T01:55:58.632Z,9.28
2018-02-10T01:58:26.051Z,9.14
2018-02-10T02:00:53.452Z,9.20
2018-02-10T02:03:21.172Z,9.04
2018-02-10T02:05:48.586Z,9.10
2018-02-10T02:08:16.015Z,9.28
2018-02-10T02:10:43.398Z,9.30
2018-02-10T02:13:10.818Z,9.31
2018-02-10T02:15:38.194Z,9.32
2018-02-10T02:18:05.569Z,9.14
2018-02-10T02:20:32.997Z,9.21
2018-02-10T02:23:00.384Z,9.26
2018-02-10T02:25:27.902Z,9.15
2018-02-10T02:27:55.319Z,8.69
2018-02-10T02:30:22.694Z,8.65
2018-02-10T02:32:50.070Z,8.92
2018-02-10T02:35:17.445Z,8.92
2018-02-10T02:37:44.862Z,8.85
2018-02-10T02:40:12.241Z,8.73
2018-02-10T02:42:39.618Z,8.75
2018-02-10T02:45:07.018Z,8.66
2018-02-10T02:47:34.413Z,8.81
2018-02-10T02:50:01.797Z,8.64
2018-02-10T02:52:29.221Z,8.57
2018-02-10T02:54:56.597Z,8.39
2018-02-10T02:57:23.978Z,8.36
2018-02-10T02:59:51.390Z,8.40
2018-02-10T03:02:18.843Z,8.48
2018-02-10T03:04:46.217Z,8.40
2018-02-10T03:07:13.597Z,8.19
2018-02-10T03:09:40.989Z,8.07
2018-02-10T03:12:08.485Z,8.09
2018-02-10T03:14:35.865Z,7.96
2018-02-10T03:17:04.072Z,8.29
2018-02-10T03:19:31.493Z,8.15
2018-02-10T03:21:58.870Z,8.16
2018-02-10T03:24:26.249Z,8.22
2018-02-10T03:26:53.681Z,8.14
2018-02-10T03:29:21.097Z,8.09
2018-02-10T03:31:48.469Z,7.56
2018-02-10T03:34:15.845Z,7.81
2018-02-10T03:36:43.273Z,7.57
2018-02-10T03:39:10.647Z,7.66
2018-02-10T03:41:38.029Z,7.50
2018-02-10T03:44:05.449Z,7.90
2018-02-10T03:46:32.826Z,8.03
2018-02-10T03:49:00.210Z,8.08
2018-02-10T03:51:27.598Z,8.07
2018-02-10T03:53:55.014Z,8.01
2018-02-10T03:56:22.388Z,8.13
2018-02-10T03:58:49.834Z,8.03
2018-02-10T04:01:17.220Z,7.67
2018-02-10T04:03:44.637Z,7.49
2018-02-10T04:06:12.013Z,7.79
2018-02-10T04:08:39.389Z,7.94
2018-02-10T04:11:06.820Z,8.01
2018-02-10T04:13:34.197Z,7.94
2018-02-10T04:16:01.573Z,7.88
2018-02-10T04:18:28.960Z,8.01
2018-02-10T04:20:56.337Z,8.16
2018-02-10T04:23:23.749Z,7.96
2018-02-10T04:25:51.120Z,7.99
2018-02-10T04:28:18.538Z,8.09
2018-02-10T04:30:45.917Z,8.14
2018-02-10T04:33:13.305Z,8.17
2018-02-10T04:35:40.689Z,8.08
2018-02-10T04:38:08.107Z,8.07
2018-02-10T04:40:35.485Z,7.86
2018-02-10T04:43:02.861Z,7.93
2018-02-10T04:45:30.279Z,7.90
2018-02-10T04:47:57.652Z,7.83
2018-02-10T04:50:25.027Z,7.79
2018-02-10T04:52:52.441Z,7.79
2018-02-10T04:55:19.867Z,7.72
2018-02-10T04:57:47.308Z,7.85
2018-02-10T05:00:14.725Z,7.74
2018-02-10T05:02:42.102Z,7.78
2018-02-10T05:05:09.481Z,7.83
2018-02-10T05:07:36.896Z,7.89
2018-02-10T05:10:04.276Z,7.86
2018-02-10T05:12:31.654Z,7.73
2018-02-10T05:14:59.070Z,7.56
2018-02-10T05:17:26.446Z,7.76
2018-02-10T05:19:53.822Z,7.75
2018-02-10T05:22:21.212Z,7.62
2018-02-10T05:24:48.585Z,7.64
2018-02-10T05:27:15.997Z,7.79
2018-02-10T05:29:43.401Z,7.71
2018-02-10T05:32:10.772Z,7.79
2018-02-10T05:34:38.152Z,7.33
2018-02-10T05:37:05.558Z,7.28
2018-02-10T05:39:32.994Z,7.24
2018-02-10T05:42:00.386Z,7.74
2018-02-10T05:44:27.790Z,7.85
2018-02-10T05:46:55.173Z,7.78
2018-02-10T05:49:22.549Z,7.90
2018-02-10T05:51:49.961Z,7.93
2018-02-10T05:54:17.348Z,7.59
2018-02-10T05:56:44.721Z,7.17
2018-02-10T05:59:12.100Z,7.50
2018-02-10T06:01:39.478Z,7.85
2018-02-10T06:04:06.893Z,8.09
2018-02-10T06:06:34.273Z,7.92
2018-02-10T06:09:01.657Z,7.52
2018-02-10T06:11:29.077Z,7.83
2018-02-10T06:13:56.455Z,7.77
2018-02-10T06:16:23.829Z,7.72
2018-02-10T06:18:51.244Z,7.49
2018-02-10T06:21:18.633Z,7.89
2018-02-10T06:23:46.009Z,8.06
2018-02-10T06:26:13.417Z,7.98
2018-02-10T06:28:40.797Z,8.06
2018-02-10T06:31:08.173Z,8.10
2018-02-10T06:33:35.549Z,8.05
2018-02-10T06:36:02.926Z,8.09
2018-02-10T06:38:30.337Z,7.98
2018-02-10T06:40:57.713Z,8.20
2018-02-10T06:43:25.086Z,8.37
2018-02-10T06:45:52.510Z,8.52
2018-02-10T06:48:19.889Z,8.30
2018-02-10T06:50:47.272Z,8.51
2018-02-10T06:53:14.669Z,8.47
2018-02-10T06:55:42.049Z,8.22
2018-02-10T06:58:09.474Z,8.48
2018-02-10T07:00:36.857Z,8.72
2018-02-10T07:03:04.248Z,8.55
2018-02-10T07:05:31.692Z,8.39
2018-02-10T07:07:59.065Z,8.13
2018-02-10T07:10:26.453Z,8.15
2018-02-10T07:12:53.865Z,8.25
2018-02-10T07:15:21.413Z,8.21
2018-02-10T07:17:48.801Z,8.17
2018-02-10T07:20:16.216Z,7.97
2018-02-10T07:22:43.715Z,8.17
2018-02-10T07:25:11.093Z,8.15
2018-02-10T07:27:38.510Z,8.30
2018-02-10T07:30:06.640Z,8.31
2018-02-10T07:32:34.085Z,8.43
2018-02-10T07:35:01.528Z,8.61
2018-02-10T07:37:28.909Z,8.81
2018-02-10T07:39:56.359Z,8.75
2018-02-10T07:42:23.793Z,8.84
2018-02-10T07:44:51.165Z,8.53
2018-02-10T07:47:18.689Z,8.78
2018-02-10T07:49:46.140Z,8.71
2018-02-10T07:52:13.530Z,8.34
2018-02-10T07:54:40.918Z,8.38
2018-02-10T07:57:08.412Z,8.58
2018-02-10T07:59:35.789Z,8.80
2018-02-10T08:02:03.174Z,8.87
2018-02-10T08:04:30.592Z,9.09
2018-02-10T08:06:57.977Z,9.08
2018-02-10T08:09:25.402Z,9.33
2018-02-10T08:11:52.782Z,9.47
2018-02-10T08:14:20.185Z,9.50
2018-02-10T08:16:47.608Z,9.38
2018-02-10T08:19:15.037Z,9.21
2018-02-10T08:21:42.421Z,9.13
2018-02-10T08:24:09.798Z,9.55
2018-02-10T08:26:37.179Z,9.48
2018-02-10T08:29:04.593Z,9.68
2018-02-10T08:31:32.007Z,9.59
2018-02-10T08:33:59.401Z,9.86
2018-02-10T08:36:26.829Z,9.42
2018-02-10T08:38:54.241Z,9.43
2018-02-10T08:41:21.638Z,9.49
2018-02-10T08:43:49.118Z,9.68
2018-02-10T08:46:16.492Z,9.58
2018-02-10T08:48:43.869Z,9.66
2018-02-10T08:51:11.472Z,9.57
2018-02-10T08:53:38.960Z,9.81
2018-02-10T08:56:06.376Z,9.93
2018-02-10T08:58:33.760Z,9.89
2018-02-10T09:01:01.159Z,9.75
2018-02-10T09:03:28.616Z,9.77
2018-02-10T09:05:55.996Z,9.93
2018-02-10T09:08:23.429Z,10.17
2018-02-10T09:10:50.818Z,10.38
2018-02-10T09:13:18.201Z,10.53
2018-02-10T09:15:45.581Z,10.34
2018-02-10T09:18:12.977Z,10.27
2018-02-10T09:20:40.398Z,10.20
2018-02-10T09:23:07.776Z,10.31
2018-02-10T09:25:35.336Z,10.58
2018-02-10T09:28:02.773Z,10.75
2018-02-10T09:30:30.153Z,10.47
2018-02-10T09:32:57.536Z,10.62
2018-02-10T09:35:24.966Z,10.75
2018-02-10T09:37:52.350Z,11.07
2018-02-10T09:40:19.736Z,11.14
2018-02-10T09:42:47.165Z,11.20
2018-02-10T09:45:14.583Z,11.22
2018-02-10T09:47:42.013Z,11.35
2018-02-10T09:50:09.430Z,10.80
2018-02-10T09:52:36.814Z,10.86
2018-02-10T09:55:04.194Z,10.74
2018-02-10T09:57:31.619Z,10.67
2018-02-10T09:59:59.001Z,10.71
2018-02-10T10:02:26.391Z,10.87
2018-02-10T10:04:53.773Z,10.70
2018-02-10T10:07:21.209Z,10.74
2018-02-10T10:09:48.593Z,10.73
2018-02-10T10:12:15.977Z,11.01
2018-02-10T10:14:43.357Z,11.16
2018-02-10T10:17:10.734Z,11.08
2018-02-10T10:19:38.173Z,11.14
2018-02-10T10:22:05.554Z,10.40
2018-02-10T10:24:32.939Z,10.25
2018-02-10T10:27:00.512Z,10.58
2018-02-10T10:29:27.893Z,10.60
2018-02-10T10:31:55.277Z,10.39
2018-02-10T10:34:22.698Z,10.33
2018-02-10T10:36:50.297Z,10.19
2018-02-10T10:39:17.673Z,9.91
2018-02-10T10:41:45.109Z,10.25
2018-02-10T10:44:12.490Z,10.33
2018-02-10T10:46:39.869Z,10.26
2018-02-10T10:49:07.290Z,10.08
2018-02-10T10:51:34.700Z,10.06
2018-02-10T10:54:02.229Z,10.19
2018-02-10T10:56:29.645Z,9.58
2018-02-10T10:58:57.021Z,9.45
2018-02-10T11:01:24.401Z,9.39
2018-02-10T11:03:51.834Z,9.56
2018-02-10T11:06:19.214Z,9.41
2018-02-10T11:08:46.589Z,9.36
2018-02-10T11:11:14.401Z,9.29
2018-02-10T11:13:41.789Z,9.00
2018-02-10T11:16:09.192Z,9.04
2018-02-10T11:18:36.581Z,8.87
2018-02-10T11:21:03.957Z,9.16
2018-02-10T11:23:31.333Z,9.33
2018-02-10T11:25:58.705Z,9.10
2018-02-10T11:28:26.346Z,9.11
2018-02-10T11:30:53.744Z,8.84
2018-02-10T11:33:21.139Z,8.90
2018-02-10T11:35:48.553Z,8.87
2018-02-10T11:38:15.929Z,9.13
2018-02-10T11:40:43.301Z,9.24
2018-02-10T11:43:10.718Z,9.08
2018-02-10T11:45:38.097Z,8.85
2018-02-10T11:48:05.478Z,8.89
2018-02-10T11:50:32.889Z,9.09
2018-02-10T11:53:00.289Z,9.10
2018-02-10T11:55:27.666Z,8.89
2018-02-10T11:57:55.098Z,8.92
2018-02-10T12:00:22.505Z,8.93
2018-02-10T12:02:49.893Z,8.82
2018-02-10T12:05:17.317Z,9.06
2018-02-10T12:07:44.703Z,8.90
2018-02-10T12:10:12.079Z,8.86
2018-02-10T12:12:39.497Z,8.75
2018-02-10T12:15:06.877Z,9.14
2018-02-10T12:17:34.261Z,8.80
2018-02-10T12:20:01.742Z,8.71
2018-02-10T12:22:29.168Z,8.62
2018-02-10T12:24:56.572Z,8.66
2018-02-10T12:27:24.001Z,8.36
2018-02-10T12:29:51.381Z,8.67
2018-02-10T12:32:18.773Z,8.88
2018-02-10T12:34:46.189Z,8.83
2018-02-10T12:37:13.570Z,8.80
2018-02-10T12:39:40.945Z,8.51
2018-02-10T12:42:08.369Z,8.45
2018-02-10T12:44:35.749Z,8.26
2018-02-10T12:47:03.130Z,8.49
2018-02-10T12:49:30.577Z,8.67
2018-02-10T12:51:57.953Z,8.54
2018-02-10T12:54:25.355Z,8.62
2018-02-10T12:56:52.781Z,8.57
2018-02-10T12:59:20.168Z,8.41
2018-02-10T13:01:47.558Z,8.56
2018-02-10T13:04:14.938Z,8.66
2018-02-10T13:06:42.322Z,8.90
2018-02-10T13:09:09.831Z,8.88
2018-02-10T13:11:37.201Z,8.50
2018-02-10T13:14:04.589Z,8.28
2018-02-10T13:16:32.024Z,8.41
2018-02-10T13:18:59.402Z,8.50
2018-02-10T13:21:26.810Z,8.49
2018-02-10T13:23:54.190Z,8.56
2018-02-10T13:26:21.650Z,8.45
2018-02-10T13:28:49.881Z,8.83
2018-02-10T13:31:17.277Z,8.75
2018-02-10T13:33:44.713Z,8.64
2018-02-10T13:36:12.121Z,8.63
2018-02-10T13:38:39.537Z,8.79
2018-02-10T13:41:06.929Z,8.63
2018-02-10T13:43:34.313Z,8.47
2018-02-10T13:46:01.693Z,8.42
2018-02-10T13:48:37.974Z,8.32
2018-02-10T13:51:05.389Z,8.35
2018-02-10T13:53:32.779Z,8.64
2018-02-10T13:56:00.202Z,8.76
2018-02-10T13:58:27.629Z,8.65
2018-02-10T14:00:55.025Z,8.58
2018-02-10T14:03:22.415Z,8.44
2018-02-10T14:05:49.989Z,8.60
2018-02-10T14:08:17.404Z,8.83
2018-02-10T14:10:44.813Z,8.93
2018-02-10T14:13:12.193Z,8.95
2018-02-10T14:15:39.659Z,8.74
2018-02-10T14:18:07.077Z,8.71
2018-02-10T14:20:34.457Z,8.72
2018-02-10T14:23:01.889Z,8.81
2018-02-10T14:25:29.285Z,9.03
2018-02-10T14:27:56.809Z,9.13
2018-02-10T14:30:24.320Z,9.28
2018-02-10T14:32:51.705Z,9.16
2018-02-10T14:35:19.105Z,9.04
2018-02-10T14:37:46.500Z,9.01
2018-02-10T14:40:13.944Z,8.85
2018-02-10T14:42:41.324Z,8.86
2018-02-10T14:45:08.703Z,8.89
2018-02-10T14:47:36.131Z,9.01
2018-02-10T14:50:03.514Z,9.09
2018-02-10T14:52:30.894Z,9.17
2018-02-10T14:54:58.286Z,9.26
2018-02-10T14:57:25.683Z,9.31
2018-02-10T14:59:53.166Z,9.06
2018-02-10T15:02:20.633Z,9.16
2018-02-10T15:04:48.041Z,9.14
2018-02-10T15:07:15.458Z,9.34
2018-02-10T15:09:42.849Z,9.11
2018-02-10T15:12:10.241Z,9.11
2018-02-10T15:14:37.658Z,9.17
2018-02-10T15:17:05.049Z,9.20
2018-02-10T15:19:32.428Z,8.86
2018-02-10T15:21:59.850Z,8.77
2018-02-10T15:24:27.290Z,8.93
2018-02-10T15:26:54.715Z,9.05
2018-02-10T15:29:22.150Z,9.10
2018-02-10T15:32:01.532Z,9.06
2018-02-10T15:34:40.665Z,9.12
2018-02-10T15:37:08.049Z,9.05
2018-02-10T15:39:35.429Z,9.16
2018-02-10T15:42:02.825Z,9.27
2018-02-10T15:44:30.234Z,9.00
2018-02-10T15:46:58.550Z,9.08
2018-02-10T15:49:26.023Z,9.04
2018-02-10T15:51:53.413Z,9.19
2018-02-10T15:54:20.839Z,9.05
2018-02-10T15:56:48.226Z,9.00
2018-02-10T15:59:15.605Z,8.76
2018-02-10T16:01:44.385Z,8.87
2018-02-10T16:04:11.935Z,8.94
2018-02-10T16:06:39.402Z,8.93
2018-02-10T16:09:06.874Z,8.69
2018-02-10T16:11:34.281Z,8.80
2018-02-10T16:14:01.673Z,8.81
2018-02-10T16:16:29.214Z,8.72
2018-02-10T16:18:56.653Z,8.59
2018-02-10T16:21:24.998Z,8.58
2018-02-10T16:23:52.395Z,8.50
2018-02-10T16:26:19.808Z,8.60
2018-02-10T16:28:47.253Z,8.43
2018-02-10T16:31:14.643Z,8.42
2018-02-10T16:33:42.038Z,8.53
2018-02-10T16:36:09.481Z,8.51
2018-02-10T16:38:36.857Z,8.40
2018-02-10T16:41:04.253Z,8.49
2018-02-10T16:43:31.673Z,8.58
2018-02-10T16:45:59.783Z,8.77
2018-02-10T16:48:27.165Z,8.78
2018-02-10T16:50:54.582Z,8.65
2018-02-10T16:53:22.013Z,8.22
2018-02-10T16:55:49.393Z,8.41
2018-02-10T16:58:16.779Z,8.54
2018-02-10T17:00:44.195Z,8.51
2018-02-10T17:03:11.578Z,8.27
2018-02-10T17:05:38.994Z,8.28
2018-02-10T17:08:06.426Z,8.25
2018-02-10T17:10:33.814Z,8.35
2018-02-10T17:13:01.251Z,8.16
2018-02-10T17:15:28.638Z,8.04
2018-02-10T17:17:56.023Z,7.94
2018-02-10T17:20:23.401Z,7.90
2018-02-10T17:22:50.839Z,8.07
2018-02-10T17:25:18.247Z,7.95
2018-02-10T17:27:45.680Z,7.88
2018-02-10T17:30:13.065Z,7.79
2018-02-10T17:32:40.441Z,7.84
2018-02-10T17:35:07.865Z,7.85
2018-02-10T17:37:35.246Z,7.85
2018-02-10T17:40:02.633Z,7.58
2018-02-10T17:42:30.030Z,7.72
2018-02-10T17:44:57.419Z,7.52
2018-02-10T17:47:24.849Z,7.59
2018-02-10T17:49:52.234Z,7.56
2018-02-10T17:52:19.634Z,7.73
2018-02-10T17:54:47.053Z,7.64
2018-02-10T17:57:14.430Z,7.51
2018-02-10T17:59:41.821Z,7.35
2018-02-10T18:02:09.230Z,7.41
2018-02-10T18:04:36.629Z,7.37
2018-02-10T18:07:04.275Z,7.52
2018-02-10T18:09:31.709Z,7.33
2018-02-10T18:11:59.086Z,7.34
2018-02-10T18:14:26.633Z,7.62
2018-02-10T18:16:54.057Z,7.54
2018-02-10T18:19:21.441Z,7.64
2018-02-10T18:21:48.825Z,7.46
2018-02-10T18:24:16.249Z,7.55
2018-02-10T18:26:43.643Z,7.56
2018-02-10T18:29:11.024Z,7.38
2018-02-10T18:31:38.450Z,7.33
2018-02-10T18:34:05.835Z,7.18
2018-02-10T18:36:33.223Z,7.40
2018-02-10T18:39:00.609Z,7.46
2018-02-10T18:41:28.617Z,7.31
2018-02-10T18:43:56.039Z,7.33
2018-02-10T18:46:23.457Z,7.23
2018-02-10T18:48:50.845Z,7.25
2018-02-10T18:51:18.353Z,7.38
2018-02-10T18:53:45.743Z,7.24
2018-02-10T18:56:13.130Z,7.33
2018-02-10T18:58:40.520Z,7.30
2018-02-10T19:01:07.914Z,7.34
2018-02-10T19:03:35.348Z,7.42
2018-02-10T19:06:02.736Z,7.30
2018-02-10T19:08:30.113Z,7.30
2018-02-10T19:10:57.514Z,7.24
2018-02-10T19:13:24.942Z,7.32
2018-02-10T19:15:52.323Z,7.22
2018-02-10T19:18:19.724Z,7.08
2018-02-10T19:20:47.114Z,7.36
2018-02-10T19:23:14.489Z,7.33
2018-02-10T19:25:41.953Z,7.08
2018-02-10T19:28:09.336Z,7.25
2018-02-10T19:30:36.777Z,7.09
2018-02-10T19:33:04.173Z,7.09
2018-02-10T19:35:31.781Z,7.14
2018-02-10T19:37:59.241Z,7.01
2018-02-10T19:40:26.621Z,7.04
2018-02-10T19:42:54.001Z,6.82
2018-02-10T19:45:21.426Z,6.95
2018-02-10T19:47:48.831Z,7.11
2018-02-10T19:50:16.209Z,6.94
2018-02-10T19:52:43.645Z,6.69
2018-02-10T19:55:11.029Z,6.86
2018-02-10T19:57:38.411Z,6.87
2018-02-10T20:00:05.829Z,6.87
2018-02-10T20:02:33.214Z,6.76
2018-02-10T20:05:00.618Z,6.79
2018-02-10T20:07:28.757Z,6.75
2018-02-10T20:09:56.138Z,6.89
2018-02-10T20:12:23.525Z,7.02
2018-02-10T20:14:50.953Z,6.75
2018-02-10T20:17:18.329Z,6.97
2018-02-10T20:19:45.709Z,7.16
2018-02-10T20:22:13.097Z,7.16
2018-02-10T20:24:40.501Z,7.24
2018-02-10T20:27:07.882Z,7.25
2018-02-10T20:29:35.302Z,7.28
2018-02-10T20:32:02.697Z,6.92
2018-02-10T20:34:30.168Z,6.94
2018-02-10T20:36:57.573Z,6.79
2018-02-10T20:39:24.958Z,6.58
2018-02-10T20:41:52.341Z,6.54
2018-02-10T20:44:19.730Z,6.38
2018-02-10T20:46:47.110Z,6.28
2018-02-10T20:49:14.537Z,6.19
2018-02-10T20:51:41.930Z,6.25
2018-02-10T20:54:09.313Z,6.29
2018-02-10T20:56:36.746Z,6.27
2018-02-10T20:59:04.161Z,6.10
2018-02-10T21:01:31.625Z,6.27
2018-02-10T21:03:59.038Z,6.23
2018-02-10T21:06:26.421Z,5.95
2018-02-10T21:08:53.809Z,6.22
2018-02-10T21:11:21.241Z,6.22
2018-02-10T21:13:48.865Z,6.22
2018-02-10T21:16:16.253Z,6.08
2018-02-10T21:18:43.685Z,5.81
2018-02-10T21:21:11.086Z,6.02
2018-02-10T21:23:38.473Z,6.16
2018-02-10T21:26:05.864Z,6.01
2018-02-10T21:28:34.213Z,5.95
2018-02-10T21:31:01.657Z,6.14
2018-02-10T21:33:29.039Z,6.08
2018-02-10T21:35:56.433Z,5.91
